sensor_id;sensor_type;location;lat;lon;timestamp;temperature;humidity
27647;DHT22;42229;51.230;6.240;2022-07-23T05:23:43;16.20;99.90
27647;DHT22;42229;51.230;6.240;2022-07-23T05:26:10;16.30;99.90
27647;DHT22;42229;51.230;6.240;2022-07-23T05:28:36;16.40;99.90
27647;DHT22;42229;51.230;6.240;2022-07-23T05:31:02;16.30;99.90
27647;DHT22;42229;51.230;6.240;2022-07-23T05:33:29;16.40;99.90
27647;DHT22;42229;51.230;6.240;2022-07-23T05:36:00;16.40;99.90
27647;DHT22;42229;51.230;6.240;2022-07-23T05:38:29;16.40;99.90
27647;DHT22;42229;51.230;6.240;2022-07-23T05:40:58;16.50;99.90
27647;DHT22;42229;51.230;6.240;2022-07-23T05:43:24;16.50;99.90
27647;DHT22;42229;51.230;6.240;2022-07-23T05:45:51;16.60;99.90
27647;DHT22;42229;51.230;6.240;2022-07-23T05:48:17;16.60;99.90
27647;DHT22;42229;51.230;6.240;2022-07-23T05:50:57;16.70;99.90
27647;DHT22;42229;51.230;6.240;2022-07-23T05:53:34;16.70;99.90
27647;DHT22;42229;51.230;6.240;2022-07-23T05:56:05;16.80;99.90
27647;DHT22;42229;51.230;6.240;2022-07-23T05:58:32;16.80;99.90
27647;DHT22;42229;51.230;6.240;2022-07-23T06:00:58;16.90;99.90
27647;DHT22;42229;51.230;6.240;2022-07-23T06:03:24;16.90;99.90
27647;DHT22;42229;51.230;6.240;2022-07-23T06:05:50;17.00;99.90
27647;DHT22;42229;51.230;6.240;2022-07-23T06:08:17;17.00;99.90
27647;DHT22;42229;51.230;6.240;2022-07-23T06:10:44;17.10;99.90
27647;DHT22;42229;51.230;6.240;2022-07-23T06:13:10;17.20;99.90
27647;DHT22;42229;51.230;6.240;2022-07-23T06:15:36;17.20;99.90
27647;DHT22;42229;51.230;6.240;2022-07-23T06:18:03;17.30;99.90
27647;DHT22;42229;51.230;6.240;2022-07-23T06:20:29;17.30;99.90
27647;DHT22;42229;51.230;6.240;2022-07-23T06:22:57;17.40;99.90
27647;DHT22;42229;51.230;6.240;2022-07-23T06:25:23;17.40;99.90
27647;DHT22;42229;51.230;6.240;2022-07-23T06:27:50;17.50;99.90
27647;DHT22;42229;51.230;6.240;2022-07-23T06:30:16;17.60;99.90
27647;DHT22;42229;51.230;6.240;2022-07-23T06:32:43;17.60;99.90
27647;DHT22;42229;51.230;6.240;2022-07-23T06:35:09;17.70;99.90
27647;DHT22;42229;51.230;6.240;2022-07-23T06:37:36;17.80;99.90
27647;DHT22;42229;51.230;6.240;2022-07-23T06:40:03;17.80;99.90
27647;DHT22;42229;51.230;6.240;2022-07-23T06:42:29;17.90;99.90
27647;DHT22;42229;51.230;6.240;2022-07-23T06:44:58;17.90;99.90
27647;DHT22;42229;51.230;6.240;2022-07-23T06:47:24;18.00;99.90
27647;DHT22;42229;51.230;6.240;2022-07-23T06:49:51;18.10;99.90
27647;DHT22;42229;51.230;6.240;2022-07-23T06:52:17;18.10;99.90
27647;DHT22;42229;51.230;6.240;2022-07-23T06:54:43;18.20;99.90
27647;DHT22;42229;51.230;6.240;2022-07-23T06:57:10;18.30;99.90
27647;DHT22;42229;51.230;6.240;2022-07-23T06:59:36;18.40;99.90
27647;DHT22;42229;51.230;6.240;2022-07-23T07:02:09;18.40;99.90
27647;DHT22;42229;51.230;6.240;2022-07-23T07:04:35;18.50;99.90
27647;DHT22;42229;51.230;6.240;2022-07-23T07:07:01;18.60;99.90
27647;DHT22;42229;51.230;6.240;2022-07-23T07:09:27;18.60;99.90
27647;DHT22;42229;51.230;6.240;2022-07-23T07:11:54;18.70;99.90
27647;DHT22;42229;51.230;6.240;2022-07-23T07:14:20;18.80;99.90
27647;DHT22;42229;51.230;6.240;2022-07-23T07:16:46;18.80;99.90
27647;DHT22;42229;51.230;6.240;2022-07-23T07:19:13;18.90;99.90
27647;DHT22;42229;51.230;6.240;2022-07-23T07:21:39;19.00;99.90
27647;DHT22;42229;51.230;6.240;2022-07-23T07:24:05;19.00;99.90
27647;DHT22;42229;51.230;6.240;2022-07-23T07:26:32;19.10;99.90
27647;DHT22;42229;51.230;6.240;2022-07-23T07:28:58;19.20;99.90
27647;DHT22;42229;51.230;6.240;2022-07-23T07:31:24;19.20;99.90
27647;DHT22;42229;51.230;6.240;2022-07-23T07:33:51;19.30;99.90
27647;DHT22;42229;51.230;6.240;2022-07-23T07:36:17;19.40;99.90
27647;DHT22;42229;51.230;6.240;2022-07-23T07:38:43;19.40;99.90
27647;DHT22;42229;51.230;6.240;2022-07-23T07:41:10;19.50;99.90
27647;DHT22;42229;51.230;6.240;2022-07-23T07:43:36;19.60;99.90
27647;DHT22;42229;51.230;6.240;2022-07-23T07:46:03;19.70;99.90
27647;DHT22;42229;51.230;6.240;2022-07-23T07:48:29;19.80;99.90
27647;DHT22;42229;51.230;6.240;2022-07-23T07:50:55;19.90;99.90
27647;DHT22;42229;51.230;6.240;2022-07-23T07:53:22;20.00;99.90
27647;DHT22;42229;51.230;6.240;2022-07-23T07:55:48;20.00;99.90
27647;DHT22;42229;51.230;6.240;2022-07-23T07:58:14;20.10;99.90
27647;DHT22;42229;51.230;6.240;2022-07-23T08:00:40;20.20;99.90
27647;DHT22;42229;51.230;6.240;2022-07-23T08:03:06;20.30;99.90
27647;DHT22;42229;51.230;6.240;2022-07-23T08:05:33;20.40;99.90
27647;DHT22;42229;51.230;6.240;2022-07-23T08:07:59;20.40;99.90
27647;DHT22;42229;51.230;6.240;2022-07-23T08:10:26;20.50;99.90
27647;DHT22;42229;51.230;6.240;2022-07-23T08:12:53;20.60;99.90
27647;DHT22;42229;51.230;6.240;2022-07-23T08:15:22;20.70;99.90
27647;DHT22;42229;51.230;6.240;2022-07-23T08:17:49;20.80;99.90
27647;DHT22;42229;51.230;6.240;2022-07-23T08:20:16;20.90;99.90
27647;DHT22;42229;51.230;6.240;2022-07-23T08:22:48;21.00;99.90
27647;DHT22;42229;51.230;6.240;2022-07-23T08:25:19;21.10;99.90
27647;DHT22;42229;51.230;6.240;2022-07-23T08:27:50;21.20;99.90
27647;DHT22;42229;51.230;6.240;2022-07-23T08:30:16;21.40;99.90
27647;DHT22;42229;51.230;6.240;2022-07-23T08:35:26;21.50;99.90
27647;DHT22;42229;51.230;6.240;2022-07-23T08:37:54;21.70;99.90
27647;DHT22;42229;51.230;6.240;2022-07-23T08:40:21;21.70;99.90
27647;DHT22;42229;51.230;6.240;2022-07-23T08:42:48;21.80;99.90
27647;DHT22;42229;51.230;6.240;2022-07-23T08:45:16;21.80;99.90
27647;DHT22;42229;51.230;6.240;2022-07-23T08:47:44;21.90;99.90
27647;DHT22;42229;51.230;6.240;2022-07-23T08:50:10;21.90;99.90
27647;DHT22;42229;51.230;6.240;2022-07-23T08:52:37;22.00;99.90
27647;DHT22;42229;51.230;6.240;2022-07-23T08:55:04;22.10;99.90
27647;DHT22;42229;51.230;6.240;2022-07-23T08:57:31;22.20;99.90
27647;DHT22;42229;51.230;6.240;2022-07-23T08:59:57;22.20;99.90
27647;DHT22;42229;51.230;6.240;2022-07-23T09:02:23;22.30;99.90
27647;DHT22;42229;51.230;6.240;2022-07-23T09:04:50;22.40;99.90
27647;DHT22;42229;51.230;6.240;2022-07-23T09:07:16;22.50;99.90
27647;DHT22;42229;51.230;6.240;2022-07-23T09:09:42;22.60;99.90
27647;DHT22;42229;51.230;6.240;2022-07-23T09:12:09;22.70;99.90
27647;DHT22;42229;51.230;6.240;2022-07-23T09:14:37;22.80;99.90
27647;DHT22;42229;51.230;6.240;2022-07-23T09:17:10;22.90;99.90
27647;DHT22;42229;51.230;6.240;2022-07-23T09:19:38;23.00;99.90
27647;DHT22;42229;51.230;6.240;2022-07-23T09:22:21;23.00;99.90
27647;DHT22;42229;51.230;6.240;2022-07-23T09:30:24;23.20;99.90
27647;DHT22;42229;51.230;6.240;2022-07-23T09:38:20;23.40;99.90
27647;DHT22;42229;51.230;6.240;2022-07-23T09:41:09;23.50;99.90
27647;DHT22;42229;51.230;6.240;2022-07-23T09:43:35;23.60;99.90
27647;DHT22;42229;51.230;6.240;2022-07-23T09:46:21;23.60;99.90
27647;DHT22;42229;51.230;6.240;2022-07-23T09:48:52;23.70;99.90
27647;DHT22;42229;51.230;6.240;2022-07-23T09:51:19;23.70;98.00
27647;DHT22;42229;51.230;6.240;2022-07-23T09:54:01;23.80;97.30
27647;DHT22;42229;51.230;6.240;2022-07-23T09:56:28;23.80;98.40
27647;DHT22;42229;51.230;6.240;2022-07-23T09:58:54;23.80;98.10
27647;DHT22;42229;51.230;6.240;2022-07-23T10:01:35;23.80;95.40
27647;DHT22;42229;51.230;6.240;2022-07-23T10:04:01;23.90;99.50
27647;DHT22;42229;51.230;6.240;2022-07-23T10:06:55;23.90;99.60
27647;DHT22;42229;51.230;6.240;2022-07-23T10:09:51;24.00;99.90
27647;DHT22;42229;51.230;6.240;2022-07-23T10:12:37;24.20;97.70
27647;DHT22;42229;51.230;6.240;2022-07-23T10:15:22;24.20;95.80
27647;DHT22;42229;51.230;6.240;2022-07-23T10:17:49;24.30;99.30
27647;DHT22;42229;51.230;6.240;2022-07-23T10:20:15;24.50;98.50
27647;DHT22;42229;51.230;6.240;2022-07-23T10:22:46;24.60;99.90
27647;DHT22;42229;51.230;6.240;2022-07-23T10:28:07;24.80;99.90
27647;DHT22;42229;51.230;6.240;2022-07-23T10:36:27;25.30;99.90
27647;DHT22;42229;51.230;6.240;2022-07-23T10:41:32;25.60;96.40
27647;DHT22;42229;51.230;6.240;2022-07-23T10:44:12;25.80;99.90
27647;DHT22;42229;51.230;6.240;2022-07-23T10:49:43;26.10;98.20
27647;DHT22;42229;51.230;6.240;2022-07-23T10:52:25;26.20;98.90
27647;DHT22;42229;51.230;6.240;2022-07-23T10:57:26;26.40;98.60
27647;DHT22;42229;51.230;6.240;2022-07-23T11:02:31;26.50;93.50
27647;DHT22;42229;51.230;6.240;2022-07-23T11:05:00;26.50;87.50
27647;DHT22;42229;51.230;6.240;2022-07-23T11:07:30;26.50;88.30
27647;DHT22;42229;51.230;6.240;2022-07-23T11:09:57;26.50;95.70
27647;DHT22;42229;51.230;6.240;2022-07-23T11:15:06;26.70;97.90
27647;DHT22;42229;51.230;6.240;2022-07-23T11:22:38;27.00;97.00
27647;DHT22;42229;51.230;6.240;2022-07-23T11:25:04;27.10;94.50
27647;DHT22;42229;51.230;6.240;2022-07-23T11:27:38;27.20;93.80
27647;DHT22;42229;51.230;6.240;2022-07-23T11:30:05;27.40;92.70
27647;DHT22;42229;51.230;6.240;2022-07-23T11:32:34;27.60;92.70
27647;DHT22;42229;51.230;6.240;2022-07-23T11:35:23;27.70;94.50
27647;DHT22;42229;51.230;6.240;2022-07-23T11:37:52;27.80;84.90
27647;DHT22;42229;51.230;6.240;2022-07-23T11:40:24;27.90;81.80
27647;DHT22;42229;51.230;6.240;2022-07-23T11:42:52;28.00;92.70
27647;DHT22;42229;51.230;6.240;2022-07-23T11:45:20;28.10;89.50
27647;DHT22;42229;51.230;6.240;2022-07-23T11:47:47;28.10;86.00
27647;DHT22;42229;51.230;6.240;2022-07-23T11:50:13;28.20;92.80
27647;DHT22;42229;51.230;6.240;2022-07-23T11:52:39;28.30;90.00
27647;DHT22;42229;51.230;6.240;2022-07-23T11:55:06;28.50;93.20
27647;DHT22;42229;51.230;6.240;2022-07-23T11:57:37;28.60;92.90
27647;DHT22;42229;51.230;6.240;2022-07-23T12:00:12;28.90;94.10
27647;DHT22;42229;51.230;6.240;2022-07-23T12:02:44;29.10;90.10
27647;DHT22;42229;51.230;6.240;2022-07-23T12:05:16;29.40;83.40
27647;DHT22;42229;51.230;6.240;2022-07-23T12:07:49;29.60;83.10
27647;DHT22;42229;51.230;6.240;2022-07-23T12:10:17;29.90;79.00
27647;DHT22;42229;51.230;6.240;2022-07-23T12:12:49;30.00;82.50
27647;DHT22;42229;51.230;6.240;2022-07-23T12:15:19;30.30;83.60
27647;DHT22;42229;51.230;6.240;2022-07-23T12:17:48;30.50;79.30
27647;DHT22;42229;51.230;6.240;2022-07-23T12:20:16;30.60;89.50
27647;DHT22;42229;51.230;6.240;2022-07-23T12:22:47;30.70;89.90
27647;DHT22;42229;51.230;6.240;2022-07-23T12:25:16;30.80;90.20
27647;DHT22;42229;51.230;6.240;2022-07-23T12:27:57;30.90;68.30
27647;DHT22;42229;51.230;6.240;2022-07-23T12:30:33;31.00;81.10
27647;DHT22;42229;51.230;6.240;2022-07-23T12:33:01;31.20;71.00
27647;DHT22;42229;51.230;6.240;2022-07-23T12:38:05;31.50;64.70
27647;DHT22;42229;51.230;6.240;2022-07-23T12:40:34;31.70;66.30
27647;DHT22;42229;51.230;6.240;2022-07-23T12:43:08;31.90;74.90
27647;DHT22;42229;51.230;6.240;2022-07-23T12:51:24;32.60;71.30
27647;DHT22;42229;51.230;6.240;2022-07-23T12:53:54;32.90;78.70
27647;DHT22;42229;51.230;6.240;2022-07-23T12:56:32;33.20;71.80
27647;DHT22;42229;51.230;6.240;2022-07-23T13:01:30;33.60;56.20
27647;DHT22;42229;51.230;6.240;2022-07-23T13:03:58;33.80;62.60
27647;DHT22;42229;51.230;6.240;2022-07-23T13:06:34;34.00;63.40
27647;DHT22;42229;51.230;6.240;2022-07-23T13:09:04;34.10;62.70
27647;DHT22;42229;51.230;6.240;2022-07-23T13:11:32;34.30;58.90
27647;DHT22;42229;51.230;6.240;2022-07-23T13:13:59;34.50;67.50
27647;DHT22;42229;51.230;6.240;2022-07-23T13:16:29;34.60;61.90
27647;DHT22;42229;51.230;6.240;2022-07-23T13:18:56;34.70;54.60
27647;DHT22;42229;51.230;6.240;2022-07-23T13:21:23;34.80;54.70
27647;DHT22;42229;51.230;6.240;2022-07-23T13:23:49;34.90;54.20
27647;DHT22;42229;51.230;6.240;2022-07-23T13:26:16;34.90;58.20
27647;DHT22;42229;51.230;6.240;2022-07-23T13:28:42;35.00;60.00
27647;DHT22;42229;51.230;6.240;2022-07-23T13:31:08;35.10;60.20
27647;DHT22;42229;51.230;6.240;2022-07-23T13:33:35;35.30;63.10
27647;DHT22;42229;51.230;6.240;2022-07-23T13:36:01;35.40;56.70
27647;DHT22;42229;51.230;6.240;2022-07-23T13:38:28;35.50;49.70
27647;DHT22;42229;51.230;6.240;2022-07-23T13:40:54;35.50;51.20
27647;DHT22;42229;51.230;6.240;2022-07-23T13:43:21;35.50;46.80
27647;DHT22;42229;51.230;6.240;2022-07-23T13:45:49;35.50;57.50
27647;DHT22;42229;51.230;6.240;2022-07-23T13:48:16;35.40;53.60
27647;DHT22;42229;51.230;6.240;2022-07-23T13:50:44;35.50;60.00
27647;DHT22;42229;51.230;6.240;2022-07-23T13:53:12;35.50;51.60
27647;DHT22;42229;51.230;6.240;2022-07-23T13:55:40;35.50;51.00
27647;DHT22;42229;51.230;6.240;2022-07-23T13:58:07;35.50;56.10
27647;DHT22;42229;51.230;6.240;2022-07-23T14:00:35;35.50;55.70
27647;DHT22;42229;51.230;6.240;2022-07-23T14:03:03;35.60;58.00
27647;DHT22;42229;51.230;6.240;2022-07-23T14:05:29;35.70;59.50
27647;DHT22;42229;51.230;6.240;2022-07-23T14:07:56;35.80;53.40
27647;DHT22;42229;51.230;6.240;2022-07-23T14:10:23;35.90;62.20
27647;DHT22;42229;51.230;6.240;2022-07-23T14:12:50;36.00;49.90
27647;DHT22;42229;51.230;6.240;2022-07-23T14:15:18;36.00;46.30
27647;DHT22;42229;51.230;6.240;2022-07-23T14:17:45;36.00;55.00
27647;DHT22;42229;51.230;6.240;2022-07-23T14:20:12;36.00;52.40
27647;DHT22;42229;51.230;6.240;2022-07-23T14:22:39;35.90;52.00
27647;DHT22;42229;51.230;6.240;2022-07-23T14:25:06;35.80;51.70
27647;DHT22;42229;51.230;6.240;2022-07-23T14:27:33;35.70;44.60
27647;DHT22;42229;51.230;6.240;2022-07-23T14:29:59;35.40;49.30
27647;DHT22;42229;51.230;6.240;2022-07-23T14:32:25;35.30;46.80
27647;DHT22;42229;51.230;6.240;2022-07-23T14:34:52;35.10;47.30
27647;DHT22;42229;51.230;6.240;2022-07-23T14:37:18;35.00;47.80
27647;DHT22;42229;51.230;6.240;2022-07-23T14:39:45;35.00;48.70
27647;DHT22;42229;51.230;6.240;2022-07-23T14:42:11;35.10;49.00
27647;DHT22;42229;51.230;6.240;2022-07-23T14:44:38;35.30;54.50
27647;DHT22;42229;51.230;6.240;2022-07-23T14:47:05;35.40;50.10
27647;DHT22;42229;51.230;6.240;2022-07-23T14:49:32;35.40;46.30
27647;DHT22;42229;51.230;6.240;2022-07-23T14:51:58;35.30;51.90
27647;DHT22;42229;51.230;6.240;2022-07-23T14:54:25;35.20;58.40
27647;DHT22;42229;51.230;6.240;2022-07-23T14:56:54;35.00;57.70
27647;DHT22;42229;51.230;6.240;2022-07-23T14:59:21;34.80;56.50
27647;DHT22;42229;51.230;6.240;2022-07-23T15:01:47;34.70;57.60
27647;DHT22;42229;51.230;6.240;2022-07-23T15:04:14;34.60;50.60
27647;DHT22;42229;51.230;6.240;2022-07-23T15:06:40;34.50;48.60
27647;DHT22;42229;51.230;6.240;2022-07-23T15:09:07;34.30;51.90
27647;DHT22;42229;51.230;6.240;2022-07-23T15:11:33;34.30;50.40
27647;DHT22;42229;51.230;6.240;2022-07-23T15:14:00;34.10;47.00
27647;DHT22;42229;51.230;6.240;2022-07-23T15:16:27;34.10;50.10
27647;DHT22;42229;51.230;6.240;2022-07-23T15:18:53;34.10;49.00
27647;DHT22;42229;51.230;6.240;2022-07-23T15:21:20;34.10;50.70
27647;DHT22;42229;51.230;6.240;2022-07-23T15:23:46;34.20;50.00
27647;DHT22;42229;51.230;6.240;2022-07-23T15:26:12;34.40;51.90
27647;DHT22;42229;51.230;6.240;2022-07-23T15:28:41;34.50;47.90
27647;DHT22;42229;51.230;6.240;2022-07-23T15:31:07;34.80;53.20
27647;DHT22;42229;51.230;6.240;2022-07-23T15:33:34;35.10;52.50
27647;DHT22;42229;51.230;6.240;2022-07-23T15:36:01;35.30;48.70
27647;DHT22;42229;51.230;6.240;2022-07-23T15:38:28;35.50;51.60
27647;DHT22;42229;51.230;6.240;2022-07-23T15:40:54;35.70;55.50
27647;DHT22;42229;51.230;6.240;2022-07-23T15:43:22;36.00;54.30
27647;DHT22;42229;51.230;6.240;2022-07-23T15:45:49;36.20;53.60
27647;DHT22;42229;51.230;6.240;2022-07-23T15:48:16;36.40;54.30
27647;DHT22;42229;51.230;6.240;2022-07-23T15:50:43;36.70;53.90
27647;DHT22;42229;51.230;6.240;2022-07-23T15:53:10;36.90;46.10
27647;DHT22;42229;51.230;6.240;2022-07-23T15:55:36;36.90;50.80
27647;DHT22;42229;51.230;6.240;2022-07-23T15:58:04;37.00;44.30
27647;DHT22;42229;51.230;6.240;2022-07-23T16:00:31;36.90;43.80
27647;DHT22;42229;51.230;6.240;2022-07-23T16:02:58;37.00;55.10
27647;DHT22;42229;51.230;6.240;2022-07-23T16:05:24;36.80;42.80
27647;DHT22;42229;51.230;6.240;2022-07-23T16:07:50;36.70;48.90
27647;DHT22;42229;51.230;6.240;2022-07-23T16:10:16;36.50;47.70
27647;DHT22;42229;51.230;6.240;2022-07-23T16:12:43;36.40;46.20
27647;DHT22;42229;51.230;6.240;2022-07-23T16:15:09;36.20;48.10
27647;DHT22;42229;51.230;6.240;2022-07-23T16:17:35;35.90;47.30
27647;DHT22;42229;51.230;6.240;2022-07-23T16:20:03;35.60;46.10
27647;DHT22;42229;51.230;6.240;2022-07-23T16:22:29;35.40;49.20
27647;DHT22;42229;51.230;6.240;2022-07-23T16:24:56;35.10;47.10
27647;DHT22;42229;51.230;6.240;2022-07-23T16:27:22;34.90;51.50
27647;DHT22;42229;51.230;6.240;2022-07-23T16:29:48;34.80;51.10
27647;DHT22;42229;51.230;6.240;2022-07-23T16:32:15;34.70;53.50
27647;DHT22;42229;51.230;6.240;2022-07-23T16:34:43;34.50;47.50
27647;DHT22;42229;51.230;6.240;2022-07-23T16:37:09;34.40;48.70
27647;DHT22;42229;51.230;6.240;2022-07-23T16:39:36;34.10;46.30
27647;DHT22;42229;51.230;6.240;2022-07-23T16:42:02;33.90;46.90
27647;DHT22;42229;51.230;6.240;2022-07-23T16:44:29;33.70;51.90
27647;DHT22;42229;51.230;6.240;2022-07-23T16:46:55;33.60;47.20
27647;DHT22;42229;51.230;6.240;2022-07-23T16:49:22;33.50;49.80
27647;DHT22;42229;51.230;6.240;2022-07-23T16:51:48;33.60;47.70
27647;DHT22;42229;51.230;6.240;2022-07-23T16:54:14;33.60;49.30
27647;DHT22;42229;51.230;6.240;2022-07-23T16:56:42;33.80;53.70
27647;DHT22;42229;51.230;6.240;2022-07-23T16:59:10;33.90;49.10
27647;DHT22;42229;51.230;6.240;2022-07-23T17:01:36;34.10;52.30
27647;DHT22;42229;51.230;6.240;2022-07-23T17:04:02;34.20;50.10
27647;DHT22;42229;51.230;6.240;2022-07-23T17:06:28;34.30;48.40
27647;DHT22;42229;51.230;6.240;2022-07-23T17:08:55;34.30;48.90
27647;DHT22;42229;51.230;6.240;2022-07-23T17:11:21;34.40;48.50
27647;DHT22;42229;51.230;6.240;2022-07-23T17:13:48;34.50;53.70
27647;DHT22;42229;51.230;6.240;2022-07-23T17:16:14;34.60;52.20
27647;DHT22;42229;51.230;6.240;2022-07-23T17:18:40;34.60;54.20
27647;DHT22;42229;51.230;6.240;2022-07-23T17:21:07;34.80;47.50
27647;DHT22;42229;51.230;6.240;2022-07-23T17:23:33;34.90;47.50
27647;DHT22;42229;51.230;6.240;2022-07-23T17:25:59;35.00;52.20
27647;DHT22;42229;51.230;6.240;2022-07-23T17:28:26;35.10;46.40
27647;DHT22;42229;51.230;6.240;2022-07-23T17:30:52;35.30;49.40
27647;DHT22;42229;51.230;6.240;2022-07-23T17:33:18;35.40;48.80
27647;DHT22;42229;51.230;6.240;2022-07-23T17:35:44;35.40;47.20
27647;DHT22;42229;51.230;6.240;2022-07-23T17:38:11;35.50;46.20
27647;DHT22;42229;51.230;6.240;2022-07-23T17:40:37;35.60;47.70
27647;DHT22;42229;51.230;6.240;2022-07-23T17:43:03;35.60;50.00
27647;DHT22;42229;51.230;6.240;2022-07-23T17:45:29;35.60;50.40
27647;DHT22;42229;51.230;6.240;2022-07-23T17:47:56;35.40;46.90
27647;DHT22;42229;51.230;6.240;2022-07-23T17:50:22;35.40;48.20
27647;DHT22;42229;51.230;6.240;2022-07-23T17:52:52;35.30;50.80
27647;DHT22;42229;51.230;6.240;2022-07-23T17:55:20;35.30;54.10
27647;DHT22;42229;51.230;6.240;2022-07-23T17:57:48;35.30;52.80
27647;DHT22;42229;51.230;6.240;2022-07-23T18:00:16;35.40;52.50
27647;DHT22;42229;51.230;6.240;2022-07-23T18:02:44;35.40;51.30
27647;DHT22;42229;51.230;6.240;2022-07-23T18:05:11;35.40;53.40
27647;DHT22;42229;51.230;6.240;2022-07-23T18:07:37;35.50;47.10
27647;DHT22;42229;51.230;6.240;2022-07-23T18:10:04;35.60;53.20
27647;DHT22;42229;51.230;6.240;2022-07-23T18:12:31;35.60;51.30
27647;DHT22;42229;51.230;6.240;2022-07-23T18:14:57;35.60;54.90
27647;DHT22;42229;51.230;6.240;2022-07-23T18:17:23;35.70;54.70
27647;DHT22;42229;51.230;6.240;2022-07-23T18:19:49;35.60;51.90
27647;DHT22;42229;51.230;6.240;2022-07-23T18:22:16;35.60;55.10
27647;DHT22;42229;51.230;6.240;2022-07-23T18:24:42;35.60;50.00
27647;DHT22;42229;51.230;6.240;2022-07-23T18:27:08;35.50;53.80
27647;DHT22;42229;51.230;6.240;2022-07-23T18:29:34;35.40;51.90
27647;DHT22;42229;51.230;6.240;2022-07-23T18:32:01;35.30;50.50
27647;DHT22;42229;51.230;6.240;2022-07-23T18:34:28;35.10;53.50
27647;DHT22;42229;51.230;6.240;2022-07-23T18:36:54;34.90;51.80
27647;DHT22;42229;51.230;6.240;2022-07-23T18:39:21;34.60;51.70
27647;DHT22;42229;51.230;6.240;2022-07-23T18:41:48;34.50;55.60
27647;DHT22;42229;51.230;6.240;2022-07-23T18:44:14;34.20;56.40
27647;DHT22;42229;51.230;6.240;2022-07-23T18:46:41;34.00;57.20
27647;DHT22;42229;51.230;6.240;2022-07-23T18:49:08;33.90;58.20
27647;DHT22;42229;51.230;6.240;2022-07-23T18:51:34;33.70;59.10
27647;DHT22;42229;51.230;6.240;2022-07-23T18:54:00;33.60;59.40
27647;DHT22;42229;51.230;6.240;2022-07-23T18:56:28;33.40;60.10
27647;DHT22;42229;51.230;6.240;2022-07-23T18:58:54;33.20;59.70
27647;DHT22;42229;51.230;6.240;2022-07-23T19:01:21;33.00;59.50
27647;DHT22;42229;51.230;6.240;2022-07-23T19:03:49;32.70;60.10
27647;DHT22;42229;51.230;6.240;2022-07-23T19:06:15;32.40;60.10
27647;DHT22;42229;51.230;6.240;2022-07-23T19:08:42;32.10;60.30
27647;DHT22;42229;51.230;6.240;2022-07-23T19:11:08;31.70;60.70
27647;DHT22;42229;51.230;6.240;2022-07-23T19:13:34;31.40;61.20
27647;DHT22;42229;51.230;6.240;2022-07-23T19:16:02;31.10;61.10
27647;DHT22;42229;51.230;6.240;2022-07-23T19:18:31;30.70;61.60
27647;DHT22;42229;51.230;6.240;2022-07-23T19:20:57;30.40;61.70
27647;DHT22;42229;51.230;6.240;2022-07-23T19:23:24;30.00;62.00
27647;DHT22;42229;51.230;6.240;2022-07-23T19:25:50;29.70;61.80
27647;DHT22;42229;51.230;6.240;2022-07-23T19:28:16;29.40;62.30
27647;DHT22;42229;51.230;6.240;2022-07-23T19:30:42;29.10;62.90
27647;DHT22;42229;51.230;6.240;2022-07-23T19:33:08;28.80;63.40
27647;DHT22;42229;51.230;6.240;2022-07-23T19:35:35;28.60;63.80
27647;DHT22;42229;51.230;6.240;2022-07-23T19:38:01;28.30;64.20
27647;DHT22;42229;51.230;6.240;2022-07-23T19:40:27;28.10;64.80
27647;DHT22;42229;51.230;6.240;2022-07-23T19:42:53;27.90;65.30
27647;DHT22;42229;51.230;6.240;2022-07-23T19:45:20;27.60;65.60
27647;DHT22;42229;51.230;6.240;2022-07-23T19:47:46;27.40;66.00
27647;DHT22;42229;51.230;6.240;2022-07-23T19:50:13;27.30;66.20
27647;DHT22;42229;51.230;6.240;2022-07-23T19:52:40;27.10;66.70
27647;DHT22;42229;51.230;6.240;2022-07-23T19:55:07;26.90;67.10
27647;DHT22;42229;51.230;6.240;2022-07-23T19:57:34;26.70;68.00
27647;DHT22;42229;51.230;6.240;2022-07-23T20:00:02;26.60;67.80
27647;DHT22;42229;51.230;6.240;2022-07-23T20:02:30;26.40;68.10
27647;DHT22;42229;51.230;6.240;2022-07-23T20:04:59;26.20;68.60
27647;DHT22;42229;51.230;6.240;2022-07-23T20:07:25;26.10;69.20
27647;DHT22;42229;51.230;6.240;2022-07-23T20:09:51;25.90;69.70
27647;DHT22;42229;51.230;6.240;2022-07-23T20:12:18;25.70;70.60
27647;DHT22;42229;51.230;6.240;2022-07-23T20:14:44;25.60;70.60
27647;DHT22;42229;51.230;6.240;2022-07-23T20:17:11;25.50;71.10
27647;DHT22;42229;51.230;6.240;2022-07-23T20:19:37;25.30;71.50
27647;DHT22;42229;51.230;6.240;2022-07-23T20:22:03;25.20;72.00
27647;DHT22;42229;51.230;6.240;2022-07-23T20:24:30;25.10;72.60
27647;DHT22;42229;51.230;6.240;2022-07-23T20:26:56;24.90;73.50
27647;DHT22;42229;51.230;6.240;2022-07-23T20:29:22;24.80;73.90
27647;DHT22;42229;51.230;6.240;2022-07-23T20:31:49;24.70;74.60
27647;DHT22;42229;51.230;6.240;2022-07-23T20:34:16;24.50;75.00
27647;DHT22;42229;51.230;6.240;2022-07-23T20:36:43;24.40;75.90
27647;DHT22;42229;51.230;6.240;2022-07-23T20:39:09;24.20;76.40
27647;DHT22;42229;51.230;6.240;2022-07-23T20:41:37;24.10;77.20
27647;DHT22;42229;51.230;6.240;2022-07-23T20:44:05;23.90;77.80
27647;DHT22;42229;51.230;6.240;2022-07-23T20:46:32;23.80;78.40
27647;DHT22;42229;51.230;6.240;2022-07-23T20:48:58;23.70;79.50
27647;DHT22;42229;51.230;6.240;2022-07-23T20:51:26;23.60;81.80
27647;DHT22;42229;51.230;6.240;2022-07-23T20:53:52;23.50;82.80
27647;DHT22;42229;51.230;6.240;2022-07-23T20:56:18;23.40;83.90
27647;DHT22;42229;51.230;6.240;2022-07-23T20:58:44;23.20;83.40
27647;DHT22;42229;51.230;6.240;2022-07-23T21:01:11;23.10;83.70
27647;DHT22;42229;51.230;6.240;2022-07-23T21:03:37;23.00;84.50
27647;DHT22;42229;51.230;6.240;2022-07-23T21:06:03;22.90;85.00
27647;DHT22;42229;51.230;6.240;2022-07-23T21:08:29;22.90;85.50
27647;DHT22;42229;51.230;6.240;2022-07-23T21:10:56;22.80;86.00
27647;DHT22;42229;51.230;6.240;2022-07-23T21:13:22;22.70;86.50
27647;DHT22;42229;51.230;6.240;2022-07-23T21:15:48;22.60;87.40
27647;DHT22;42229;51.230;6.240;2022-07-23T21:18:15;22.60;88.80
27647;DHT22;42229;51.230;6.240;2022-07-23T21:20:41;22.50;88.70
27647;DHT22;42229;51.230;6.240;2022-07-23T21:23:26;22.40;89.20
27647;DHT22;42229;51.230;6.240;2022-07-23T21:25:52;22.40;89.70
27647;DHT22;42229;51.230;6.240;2022-07-23T21:28:19;22.30;90.00
27647;DHT22;42229;51.230;6.240;2022-07-23T21:30:46;22.20;90.10
27647;DHT22;42229;51.230;6.240;2022-07-23T21:33:12;22.20;90.30
27647;DHT22;42229;51.230;6.240;2022-07-23T21:35:38;22.10;90.50
27647;DHT22;42229;51.230;6.240;2022-07-23T21:38:04;22.10;91.20
27647;DHT22;42229;51.230;6.240;2022-07-23T21:40:31;22.00;91.70
27647;DHT22;42229;51.230;6.240;2022-07-23T21:42:58;21.90;91.60
27647;DHT22;42229;51.230;6.240;2022-07-23T21:45:24;21.90;92.30
27647;DHT22;42229;51.230;6.240;2022-07-23T21:47:50;21.80;92.90